Time;durP1;ratioP1;P1;durP2;ratioP2;P2;SDS_P1;SDS_P2;PMS_P1;PMS_P2;Temp;Humidity;BMP_temperature;BMP_pressure;BME280_temperature;BME280_humidity;BME280_pressure;Samples;Min_cycle;Max_cycle;Signal;HPM_P1;HPM_P2
2022/11/06 00:00:25;;;;;;;;;3.33;3.33;;;;;14.17;67.27;-19589.38;5062973;28;45472;-75
2022/11/06 00:02:51;;;;;;;;;5.00;4.00;;;;;14.17;67.79;-19589.38;5056795;28;45492;-75
2022/11/06 00:08:01;;;;;;;;;6.33;4.67;;;;;14.12;67.43;-19588.19;5057004;28;45300;-74
2022/11/06 00:10:29;;;;;;;;;3.67;3.67;;;;;14.13;67.59;-19588.31;5056632;28;45560;-75
2022/11/06 00:12:55;;;;;;;;;4.33;4.33;;;;;14.06;67.38;-19586.56;5057119;28;45287;-75
2022/11/06 00:15:20;;;;;;;;;4.00;3.00;;;;;14.01;67.46;-19585.22;5056350;28;46211;-74
2022/11/06 00:17:48;;;;;;;;;6.33;5.33;;;;;13.90;67.63;-19582.41;5056687;28;45361;-75
2022/11/06 00:20:14;;;;;;;;;5.00;5.00;;;;;13.94;67.87;-19583.47;5056791;28;45497;-74
2022/11/06 00:22:39;;;;;;;;;7.00;5.33;;;;;13.90;68.04;-19582.41;5059822;28;45402;-75
2022/11/06 00:25:06;;;;;;;;;3.00;3.00;;;;;13.93;68.19;-19583.06;5059679;28;46606;-74
2022/11/06 00:27:35;;;;;;;;;4.67;3.67;;;;;13.72;67.90;-19577.56;5059656;28;45290;-75
2022/11/06 00:30:01;;;;;;;;;7.67;4.33;;;;;13.89;67.99;-19582.13;5060211;28;45395;-75
2022/11/06 00:32:26;;;;;;;;;5.33;5.33;;;;;13.94;68.13;-19583.47;5060288;28;45363;-75
2022/11/06 00:34:51;;;;;;;;;3.33;3.33;;;;;13.99;68.26;-19584.69;5059873;28;45471;-75
2022/11/06 00:37:17;;;;;;;;;5.33;4.33;;;;;14.00;68.03;-19584.81;5058729;28;45410;-75
2022/11/06 00:39:42;;;;;;;;;4.00;4.00;;;;;13.98;68.11;-19584.28;5059633;28;45381;-74
2022/11/06 00:42:09;;;;;;;;;6.00;4.00;;;;;13.98;68.13;-19584.28;5066560;28;45316;-74
2022/11/06 00:44:34;;;;;;;;;3.67;3.67;;;;;13.97;67.97;-19584.16;5079947;28;46054;-74
2022/11/06 00:47:00;;;;;;;;;3.67;3.67;;;;;13.98;68.08;-19584.41;5073009;28;45346;-73
2022/11/06 00:49:27;;;;;;;;;7.00;5.00;;;;;13.94;68.09;-19583.47;5059849;28;45378;-74
2022/11/06 00:51:52;;;;;;;;;5.00;2.67;;;;;13.57;68.01;-19573.53;5060137;28;45495;-74
2022/11/06 00:54:18;;;;;;;;;2.33;2.33;;;;;13.93;68.04;-19583.06;5041313;28;45946;-73
2022/11/06 00:56:43;;;;;;;;;7.67;4.33;;;;;13.92;67.98;-19582.81;5059478;28;45430;-74
2022/11/06 00:59:11;;;;;;;;;4.00;4.00;;;;;13.75;68.26;-19578.38;5059785;28;45394;-74
2022/11/06 01:01:39;;;;;;;;;5.33;3.00;;;;;13.95;68.10;-19583.59;5059758;28;45471;-74
2022/11/06 01:04:10;;;;;;;;;6.67;3.67;;;;;13.97;67.89;-19584.00;5059164;28;46431;-74
2022/11/06 01:06:38;;;;;;;;;3.00;3.00;;;;;13.97;68.17;-19584.00;5059600;28;45416;-74
2022/11/06 01:09:06;;;;;;;;;2.00;2.00;;;;;13.84;68.01;-19580.66;5058510;28;45428;-74
2022/11/06 01:11:35;;;;;;;;;4.00;2.67;;;;;14.01;67.84;-19585.22;5059557;28;45429;-75
2022/11/06 01:14:03;;;;;;;;;5.00;3.33;;;;;14.03;67.71;-19585.75;5059432;28;46192;-75
2022/11/06 01:16:29;;;;;;;;;5.00;2.67;;;;;14.01;67.93;-19585.09;5059520;28;45355;-74
2022/11/06 01:18:56;;;;;;;;;7.33;4.00;;;;;14.01;67.56;-19585.22;5059386;28;45330;-74
2022/11/06 01:21:24;;;;;;;;;2.33;2.33;;;;;14.00;67.68;-19584.94;5041773;28;45314;-74
2022/11/06 01:23:59;;;;;;;;;5.67;3.00;;;;;14.02;67.70;-19585.34;5040657;28;47083;-74
2022/11/06 01:26:25;;;;;;;;;3.67;3.67;;;;;14.06;67.68;-19586.44;5059130;28;45388;-74
2022/11/06 01:28:51;;;;;;;;;5.33;3.33;;;;;14.09;67.73;-19587.38;5058694;28;45408;-74
2022/11/06 01:31:20;;;;;;;;;2.00;2.00;;;;;14.11;67.24;-19587.91;5037672;28;45522;-75
2022/11/06 01:33:46;;;;;;;;;2.67;2.67;;;;;14.14;67.52;-19588.56;5020187;28;47389;-74
2022/11/06 01:36:14;;;;;;;;;3.00;3.00;;;;;14.17;67.28;-19589.38;5043177;28;45407;-75
2022/11/06 01:38:46;;;;;;;;;7.33;4.00;;;;;14.19;67.36;-19589.94;5058679;28;45461;-74
2022/11/06 01:41:14;;;;;;;;;5.67;3.33;;;;;14.24;67.28;-19591.25;5059465;28;45420;-74
2022/11/06 01:43:49;;;;;;;;;3.67;3.00;;;;;14.22;67.10;-19590.59;5058564;28;46128;-74
2022/11/06 01:46:17;;;;;;;;;2.67;2.67;;;;;14.25;67.20;-19591.41;5058162;28;45321;-74
2022/11/06 01:48:47;;;;;;;;;2.00;2.00;;;;;14.23;67.20;-19591.00;5058987;28;45374;-75
2022/11/06 01:51:13;;;;;;;;;6.67;2.67;;;;;14.23;67.15;-19590.88;5058982;28;45433;-74
2022/11/06 01:53:40;;;;;;;;;2.67;2.67;;;;;14.22;67.16;-19590.72;5058652;28;45985;-74
2022/11/06 01:56:09;;;;;;;;;2.67;2.67;;;;;13.98;67.38;-19584.28;5040622;28;45371;-74
2022/11/06 01:58:37;;;;;;;;;7.33;2.00;;;;;14.19;67.22;-19589.94;5059005;28;45438;-74
2022/11/06 02:01:04;;;;;;;;;4.00;2.67;;;;;14.21;67.22;-19590.47;5058976;28;45361;-74
2022/11/06 02:03:29;;;;;;;;;2.00;2.00;;;;;14.19;67.16;-19589.78;5058567;28;45784;-74
2022/11/06 02:05:56;;;;;;;;;4.00;4.00;;;;;14.03;67.19;-19585.63;5058488;28;45335;-74
2022/11/06 02:08:23;;;;;;;;;3.00;3.00;;;;;14.21;67.16;-19590.31;5058865;28;45456;-75
2022/11/06 02:10:49;;;;;;;;;3.67;2.67;;;;;14.02;66.99;-19585.34;5058754;28;45318;-74
2022/11/06 02:13:33;;;;;;;;;3.67;3.67;;;;;14.18;67.03;-19589.66;5040082;28;46402;-74
2022/11/06 02:16:37;;;;;;;;;3.67;3.00;;;;;14.19;66.98;-19589.78;5058528;28;45356;-74
2022/11/06 02:19:21;;;;;;;;;2.00;2.00;;;;;14.14;67.26;-19588.72;5054827;28;45357;-75
2022/11/06 02:21:59;;;;;;;;;2.67;2.67;;;;;14.09;67.27;-19587.22;5040465;28;45430;-75
2022/11/06 02:24:43;;;;;;;;;2.33;2.33;;;;;14.05;67.44;-19586.16;5058145;28;45322;-75
2022/11/06 02:27:12;;;;;;;;;2.67;2.67;;;;;14.00;67.21;-19584.81;5056975;28;45339;-74
2022/11/06 02:29:59;;;;;;;;;2.67;2.67;;;;;13.95;67.59;-19583.59;5057348;28;45568;-74
2022/11/06 02:32:50;;;;;;;;;3.67;3.67;;;;;13.90;67.45;-19582.41;5057659;28;45568;-75
2022/11/06 02:35:27;;;;;;;;;3.33;3.33;;;;;13.94;67.47;-19583.34;5065618;28;45647;-75
2022/11/06 02:37:57;;;;;;;;;5.00;3.00;;;;;13.86;67.76;-19581.31;5078392;28;45349;-74
2022/11/06 02:40:31;;;;;;;;;3.67;3.67;;;;;13.92;68.00;-19582.94;5060709;28;45326;-75
2022/11/06 02:42:58;;;;;;;;;3.67;2.67;;;;;13.77;67.92;-19578.91;5070236;28;45555;-74
2022/11/06 02:45:28;;;;;;;;;2.67;2.67;;;;;13.96;67.73;-19583.75;5076810;28;46369;-74
2022/11/06 02:47:55;;;;;;;;;3.00;2.00;;;;;13.98;67.67;-19584.28;5068037;28;45483;-74
2022/11/06 02:50:29;;;;;;;;;4.33;3.00;;;;;13.96;67.65;-19583.75;5031653;28;45525;-74
2022/11/06 02:52:59;;;;;;;;;2.33;2.33;;;;;13.94;67.88;-19583.34;5055127;28;45691;-75
2022/11/06 02:55:33;;;;;;;;;2.67;2.67;;;;;13.98;67.74;-19584.28;5037818;28;47371;-74
2022/11/06 02:58:17;;;;;;;;;2.67;2.67;;;;;13.92;67.47;-19582.94;5057069;28;45503;-75
2022/11/06 03:00:48;;;;;;;;;3.00;3.00;;;;;14.05;67.63;-19586.28;5037727;28;45435;-74
2022/11/06 03:03:22;;;;;;;;;5.00;2.00;;;;;13.83;67.44;-19580.50;5048588;28;45554;-74
2022/11/06 03:05:52;;;;;;;;;3.67;3.67;;;;;14.07;67.37;-19586.84;5071625;28;46156;-74
2022/11/06 03:08:50;;;;;;;;;5.33;5.33;;;;;14.07;67.05;-19586.69;5076557;28;45399;-74
2022/11/06 03:11:29;;;;;;;;;3.67;2.67;;;;;14.09;67.50;-19587.22;5062400;28;45428;-75
2022/11/06 03:14:06;;;;;;;;;3.33;3.00;;;;;14.10;67.37;-19587.50;5054758;28;45455;-74
2022/11/06 03:17:10;;;;;;;;;4.00;3.33;;;;;14.12;67.47;-19588.19;5056541;28;46246;-74
2022/11/06 03:19:47;;;;;;;;;3.00;3.00;;;;;14.12;67.07;-19588.19;5053689;28;45567;-74
2022/11/06 03:22:13;;;;;;;;;2.33;2.33;;;;;14.13;67.07;-19588.31;5056504;28;45449;-74
2022/11/06 03:24:44;;;;;;;;;4.67;4.00;;;;;14.06;67.40;-19586.44;5055945;28;45476;-74
2022/11/06 03:27:17;;;;;;;;;3.67;3.00;;;;;14.04;67.51;-19585.88;5067563;28;46294;-74
2022/11/06 03:29:51;;;;;;;;;2.33;2.33;;;;;13.98;67.39;-19584.28;5076910;28;45407;-75
2022/11/06 03:32:46;;;;;;;;;2.33;1.00;;;;;13.97;67.63;-19584.16;5056550;28;45384;-74
2022/11/06 03:35:21;;;;;;;;;2.33;2.33;;;;;13.98;67.28;-19584.41;5056926;28;45337;-74
2022/11/06 03:38:00;;;;;;;;;5.00;4.00;;;;;13.71;67.14;-19577.44;5057131;28;45339;-75
2022/11/06 03:40:32;;;;;;;;;3.67;3.67;;;;;13.92;67.56;-19582.94;5040040;28;45383;-74
2022/11/06 03:43:02;;;;;;;;;2.67;2.67;;;;;13.91;67.48;-19582.66;5057319;28;45313;-75
2022/11/06 03:45:31;;;;;;;;;2.67;2.67;;;;;13.89;67.52;-19582.00;5057522;28;45546;-74
2022/11/06 03:48:08;;;;;;;;;3.33;3.33;;;;;13.88;67.43;-19581.88;5056676;28;45310;-75
2022/11/06 03:50:39;;;;;;;;;5.67;2.67;;;;;13.69;67.47;-19576.75;5057069;28;45366;-74
2022/11/06 03:53:14;;;;;;;;;5.33;3.33;;;;;13.85;67.26;-19580.91;5057179;28;45393;-74
2022/11/06 03:55:54;;;;;;;;;1.67;1.33;;;;;13.85;67.53;-19580.91;5057120;28;45371;-74
2022/11/06 03:58:29;;;;;;;;;6.67;3.67;;;;;13.73;67.38;-19577.97;5060349;28;46229;-74
2022/11/06 04:00:58;;;;;;;;;1.67;1.00;;;;;13.61;67.41;-19574.75;5042654;28;45413;-74
2022/11/06 04:03:36;;;;;;;;;3.67;3.67;;;;;13.62;67.47;-19574.88;5059666;28;45481;-74
2022/11/06 04:06:11;;;;;;;;;4.33;3.00;;;;;13.84;67.47;-19580.78;5060771;28;45318;-74
2022/11/06 04:14:14;;;;;;;;;4.67;4.00;;;;;13.72;67.59;-19577.56;5061203;28;45397;-74
2022/11/06 04:16:49;;;;;;;;;3.33;3.33;;;;;13.68;67.57;-19576.63;5079927;28;45959;-74
2022/11/06 04:19:20;;;;;;;;;3.67;3.67;;;;;13.68;67.65;-19576.50;5060731;28;47049;-74
2022/11/06 04:22:10;;;;;;;;;4.00;2.67;;;;;13.65;67.33;-19575.69;5058935;28;45413;-74
2022/11/06 04:28:00;;;;;;;;;2.33;2.33;;;;;13.61;67.41;-19574.75;5060534;28;45291;-74
2022/11/06 04:30:31;;;;;;;;;3.00;3.00;;;;;13.50;68.02;-19571.78;5059686;28;45312;-74
2022/11/06 04:33:28;;;;;;;;;3.33;3.33;;;;;13.56;67.61;-19573.25;5059780;28;45435;-74
2022/11/06 04:36:23;;;;;;;;;1.33;1.33;;;;;13.55;67.68;-19573.13;5060086;28;45400;-74
2022/11/06 04:38:58;;;;;;;;;4.00;2.67;;;;;13.52;67.64;-19572.44;5053093;28;45510;-74
2022/11/06 04:41:36;;;;;;;;;4.33;2.67;;;;;13.53;67.79;-19572.59;5059828;28;46754;-74
2022/11/06 04:44:30;;;;;;;;;3.67;3.00;;;;;13.54;67.69;-19572.72;5059837;28;45335;-75
2022/11/06 04:46:59;;;;;;;;;5.33;4.00;;;;;13.54;67.63;-19572.72;5056957;28;45446;-74
2022/11/06 04:49:28;;;;;;;;;4.00;3.67;;;;;13.42;67.42;-19569.63;5060037;28;45366;-74
2022/11/06 04:51:55;;;;;;;;;3.00;3.00;;;;;13.54;67.69;-19572.72;5041521;28;48468;-75
2022/11/06 04:54:21;;;;;;;;;4.00;3.33;;;;;13.46;67.94;-19570.69;5059684;28;45393;-75
2022/11/06 04:56:47;;;;;;;;;4.33;2.67;;;;;13.57;67.60;-19573.53;5059827;28;45406;-75
2022/11/06 04:59:15;;;;;;;;;3.33;2.67;;;;;13.45;67.55;-19570.44;5059569;28;45421;-74
2022/11/06 05:01:40;;;;;;;;;3.00;3.00;;;;;13.51;67.58;-19572.06;5041523;28;47995;-75
2022/11/06 05:04:06;;;;;;;;;2.33;2.33;;;;;13.56;67.59;-19573.25;5059529;28;45292;-75
2022/11/06 05:06:31;;;;;;;;;2.67;1.67;;;;;13.56;67.61;-19573.41;5041941;28;45411;-75
2022/11/06 05:08:57;;;;;;;;;4.33;3.33;;;;;13.47;67.77;-19570.97;5058756;28;45486;-75
2022/11/06 05:11:23;;;;;;;;;3.00;2.00;;;;;13.46;67.47;-19570.69;5059789;28;46175;-74
2022/11/06 05:13:49;;;;;;;;;3.00;3.00;;;;;13.46;67.51;-19570.84;5059180;28;45294;-74
2022/11/06 05:16:14;;;;;;;;;2.33;2.33;;;;;13.38;67.35;-19568.56;5075990;28;45439;-74
2022/11/06 05:18:40;;;;;;;;;2.67;2.33;;;;;13.59;67.40;-19574.19;5080266;28;45326;-75
2022/11/06 05:23:49;;;;;;;;;3.33;2.00;;;;;13.60;67.34;-19574.34;5073384;28;45345;-75
2022/11/06 05:26:15;;;;;;;;;5.33;3.33;;;;;13.49;67.45;-19571.66;5059319;28;45351;-75
2022/11/06 05:28:40;;;;;;;;;3.33;3.00;;;;;13.61;67.30;-19574.75;5041558;28;45420;-75
2022/11/06 05:31:06;;;;;;;;;2.33;2.33;;;;;13.60;67.37;-19574.47;5058660;28;45790;-74
2022/11/06 05:33:32;;;;;;;;;4.00;4.00;;;;;13.42;67.40;-19569.75;5059356;28;45256;-75
2022/11/06 05:36:02;;;;;;;;;3.33;3.33;;;;;13.60;67.30;-19574.34;5059375;28;45261;-75
2022/11/06 05:38:27;;;;;;;;;3.33;3.33;;;;;13.62;67.34;-19574.88;5041299;28;45641;-75
2022/11/06 05:40:53;;;;;;;;;2.67;2.67;;;;;13.53;67.41;-19572.59;5058771;28;45489;-75
2022/11/06 05:43:18;;;;;;;;;3.00;3.00;;;;;13.58;66.88;-19573.78;5059173;28;45449;-75
2022/11/06 05:45:44;;;;;;;;;2.33;2.33;;;;;13.64;66.98;-19575.53;5040970;28;45433;-75
2022/11/06 05:48:10;;;;;;;;;2.33;2.33;;;;;13.65;66.96;-19575.69;5041130;28;45440;-74
2022/11/06 05:50:35;;;;;;;;;1.67;1.67;;;;;13.63;66.90;-19575.28;5058487;28;46085;-74
2022/11/06 05:53:01;;;;;;;;;3.33;3.33;;;;;13.68;67.08;-19576.50;5040506;28;45351;-75
2022/11/06 05:55:26;;;;;;;;;2.00;2.00;;;;;13.66;66.80;-19576.09;5059115;28;45290;-74
2022/11/06 05:57:52;;;;;;;;;4.33;2.67;;;;;13.70;67.00;-19577.03;5058839;28;45397;-74
2022/11/06 06:00:27;;;;;;;;;3.00;3.00;;;;;13.68;66.91;-19576.63;5058826;28;45472;-75
2022/11/06 06:02:52;;;;;;;;;3.00;3.00;;;;;13.60;66.73;-19574.34;5041827;28;45284;-74
2022/11/06 06:05:17;;;;;;;;;3.00;2.33;;;;;13.58;66.60;-19573.94;5059018;28;45440;-75
2022/11/06 06:07:43;;;;;;;;;4.00;2.33;;;;;13.63;66.80;-19575.16;5059251;28;45484;-74
2022/11/06 06:10:09;;;;;;;;;3.33;1.33;;;;;13.71;66.64;-19577.28;5058524;28;45271;-74
2022/11/06 06:12:34;;;;;;;;;3.33;2.00;;;;;13.65;66.39;-19575.69;5057834;28;45434;-74
2022/11/06 06:14:59;;;;;;;;;3.00;3.00;;;;;13.61;66.59;-19574.75;5064711;28;45717;-75
2022/11/06 06:17:26;;;;;;;;;2.00;1.33;;;;;13.63;66.35;-19575.16;5062569;28;45392;-74
2022/11/06 06:19:51;;;;;;;;;3.67;3.67;;;;;13.59;66.50;-19574.19;5058043;28;46494;-75
2022/11/06 06:22:17;;;;;;;;;2.67;2.33;;;;;13.57;66.51;-19573.53;5058345;28;45420;-75
2022/11/06 06:24:42;;;;;;;;;4.00;4.00;;;;;13.58;66.61;-19573.94;5058693;28;45437;-75
2022/11/06 06:27:08;;;;;;;;;1.67;1.67;;;;;13.59;66.67;-19574.06;5058752;28;45430;-74
2022/11/06 06:29:33;;;;;;;;;2.67;1.67;;;;;13.41;66.36;-19569.50;5058506;28;46353;-75
2022/11/06 06:31:58;;;;;;;;;6.33;3.00;;;;;13.58;66.62;-19573.78;5058208;28;45395;-74
2022/11/06 06:34:24;;;;;;;;;3.00;3.00;;;;;13.58;66.52;-19573.78;5057211;28;45395;-74
2022/11/06 06:36:50;;;;;;;;;6.33;2.67;;;;;13.56;66.46;-19573.41;5064197;28;45361;-75
2022/11/06 06:39:18;;;;;;;;;3.33;2.67;;;;;13.56;66.56;-19573.41;5078686;28;46437;-74
2022/11/06 06:41:43;;;;;;;;;3.00;2.33;;;;;13.40;66.49;-19569.09;5078256;28;45252;-75
2022/11/06 06:44:09;;;;;;;;;3.00;3.00;;;;;13.50;66.59;-19571.91;5040287;28;45539;-74
2022/11/06 06:46:34;;;;;;;;;3.67;3.00;;;;;13.44;66.66;-19570.16;5040650;28;45355;-75
2022/11/06 06:48:59;;;;;;;;;1.67;1.67;;;;;13.47;66.57;-19571.09;5039922;28;47259;-75
2022/11/06 06:51:25;;;;;;;;;5.67;4.00;;;;;13.26;66.52;-19565.59;5023811;28;45338;-75
2022/11/06 06:53:50;;;;;;;;;5.00;3.00;;;;;13.38;66.73;-19568.69;5057830;28;45434;-75
2022/11/06 06:56:15;;;;;;;;;6.67;3.67;;;;;12.89;66.57;-19555.91;5058216;28;45528;-75
2022/11/06 06:58:41;;;;;;;;;3.67;3.67;;;;;13.25;66.72;-19565.31;5040044;28;47900;-75
2022/11/06 07:01:09;;;;;;;;;3.00;3.00;;;;;13.28;66.41;-19566.13;5057971;28;45363;-75
2022/11/06 07:03:36;;;;;;;;;4.00;2.67;;;;;13.04;66.56;-19559.66;5058152;28;45490;-74
2022/11/06 07:06:01;;;;;;;;;4.33;3.00;;;;;13.27;66.62;-19565.72;5058394;28;45434;-75
2022/11/06 07:08:28;;;;;;;;;3.00;3.00;;;;;13.21;66.66;-19564.25;5056974;28;47366;-75
2022/11/06 07:11:04;;;;;;;;;3.00;3.00;;;;;12.99;66.67;-19558.31;5057255;28;45487;-75
2022/11/06 07:13:30;;;;;;;;;5.33;4.00;;;;;13.20;66.69;-19563.84;5057707;28;45522;-75
2022/11/06 07:15:55;;;;;;;;;3.00;3.00;;;;;13.21;66.67;-19564.25;5071941;28;45420;-75
2022/11/06 07:18:21;;;;;;;;;3.00;3.00;;;;;13.14;66.55;-19562.22;5077481;28;50242;-74
2022/11/06 07:20:47;;;;;;;;;3.67;3.67;;;;;13.22;66.67;-19564.50;5076763;28;46056;-74
2022/11/06 07:23:12;;;;;;;;;3.00;3.00;;;;;13.10;66.56;-19561.28;5078095;28;45388;-74
2022/11/06 07:25:37;;;;;;;;;5.00;3.00;;;;;13.23;66.60;-19564.78;5078364;28;45353;-74
2022/11/06 07:28:05;;;;;;;;;4.00;3.00;;;;;13.16;66.62;-19562.75;5077850;28;46035;-75
2022/11/06 07:30:31;;;;;;;;;2.33;2.33;;;;;13.20;66.71;-19563.97;5059603;28;45298;-75
2022/11/06 07:32:59;;;;;;;;;5.00;4.00;;;;;13.21;66.65;-19564.13;5077264;28;45520;-74
2022/11/06 07:35:25;;;;;;;;;3.00;3.00;;;;;13.07;66.53;-19560.63;5060042;28;45482;-75
2022/11/06 07:37:50;;;;;;;;;4.00;4.00;;;;;13.04;66.78;-19559.81;5058038;28;45449;-75
2022/11/06 07:40:16;;;;;;;;;3.33;2.67;;;;;13.02;66.62;-19559.28;5075963;28;45491;-74
2022/11/06 07:42:41;;;;;;;;;5.00;3.00;;;;;13.25;66.57;-19565.19;5065683;28;45358;-74
2022/11/06 07:45:07;;;;;;;;;5.00;5.00;;;;;13.09;66.53;-19561.16;5017521;28;45434;-74
2022/11/06 07:47:33;;;;;;;;;4.00;3.00;;;;;13.18;66.61;-19563.31;5054596;28;46040;-75
2022/11/06 07:49:58;;;;;;;;;3.00;3.00;;;;;13.20;66.42;-19563.84;5051465;28;45532;-74
2022/11/06 07:52:24;;;;;;;;;4.67;3.00;;;;;13.17;66.30;-19563.03;5058073;28;45377;-73
2022/11/06 07:54:50;;;;;;;;;3.67;3.33;;;;;13.18;66.50;-19563.44;5034060;28;46325;-74
2022/11/06 07:57:15;;;;;;;;;7.00;4.00;;;;;13.20;66.48;-19563.97;5054700;28;45525;-72
2022/11/06 07:59:41;;;;;;;;;3.00;3.00;;;;;13.18;66.42;-19563.31;5054898;28;45710;-72
2022/11/06 08:02:11;;;;;;;;;5.67;4.00;;;;;12.94;66.61;-19557.13;5049935;28;45512;-72
2022/11/06 08:04:36;;;;;;;;;5.00;5.00;;;;;13.14;66.51;-19562.38;5055435;28;45580;-72
2022/11/06 08:07:02;;;;;;;;;5.33;4.67;;;;;13.12;66.68;-19561.81;5035413;28;46060;-72
2022/11/06 08:09:27;;;;;;;;;10.67;9.33;;;;;13.15;66.50;-19562.63;5055735;28;45413;-73
2022/11/06 08:11:52;;;;;;;;;6.33;6.33;;;;;13.17;67.60;-19563.03;5054709;28;45461;-71
2022/11/06 08:14:18;;;;;;;;;4.00;2.00;;;;;13.08;68.11;-19560.88;5054548;28;45450;-70
2022/11/06 08:16:43;;;;;;;;;8.33;6.00;;;;;13.20;68.71;-19563.97;5055069;28;46082;-71
2022/11/06 08:19:08;;;;;;;;;3.33;3.33;;;;;13.15;67.94;-19562.63;5055968;28;45354;-71
2022/11/06 08:21:34;;;;;;;;;5.67;4.33;;;;;13.12;68.13;-19561.81;5017142;28;45620;-71
2022/11/06 08:23:59;;;;;;;;;7.67;4.00;;;;;13.01;68.16;-19558.88;5045480;28;45295;-70
2022/11/06 08:26:26;;;;;;;;;5.67;4.67;;;;;12.96;68.51;-19557.53;5038075;28;48223;-71
2022/11/06 08:28:51;;;;;;;;;2.67;1.67;;;;;13.21;68.44;-19564.13;5039759;28;45401;-71
2022/11/06 08:31:17;;;;;;;;;5.00;5.00;;;;;13.22;68.43;-19564.38;5055606;28;45315;-70
2022/11/06 08:33:42;;;;;;;;;4.00;4.00;;;;;13.24;68.32;-19564.91;5056249;28;45299;-71
2022/11/06 08:36:09;;;;;;;;;5.00;5.00;;;;;13.25;68.18;-19565.19;5036672;28;47494;-74
2022/11/06 08:38:35;;;;;;;;;3.00;3.00;;;;;13.06;68.83;-19560.22;5036686;28;45683;-73
2022/11/06 08:41:09;;;;;;;;;19.00;18.00;;;;;13.23;70.97;-19564.78;5055559;28;45583;-73
2022/11/06 08:43:35;;;;;;;;;4.33;4.33;;;;;13.04;70.51;-19559.66;5057497;28;45444;-71
2022/11/06 08:46:00;;;;;;;;;12.00;10.67;;;;;13.21;71.85;-19564.25;5056593;28;45716;-71
2022/11/06 08:48:26;;;;;;;;;8.00;7.67;;;;;13.22;71.88;-19564.50;5058074;28;45503;-70
2022/11/06 08:50:53;;;;;;;;;8.33;6.00;;;;;13.15;71.86;-19562.63;5037591;28;45521;-71
2022/11/06 08:53:18;;;;;;;;;4.33;3.00;;;;;13.23;71.81;-19564.66;5038842;28;45556;-71
2022/11/06 08:55:43;;;;;;;;;5.33;4.00;;;;;13.09;72.10;-19561.03;5060024;28;45566;-71
2022/11/06 08:58:08;;;;;;;;;3.33;3.33;;;;;13.27;72.25;-19565.72;5068572;28;45551;-70
2022/11/06 09:00:34;;;;;;;;;6.67;4.00;;;;;13.32;72.78;-19567.06;5067939;28;45457;-71
2022/11/06 09:03:05;;;;;;;;;5.00;5.00;;;;;13.36;73.05;-19568.16;5062040;28;45338;-72
2022/11/06 09:05:31;;;;;;;;;5.67;5.67;;;;;13.38;72.70;-19568.56;5058595;28;45444;-70
2022/11/06 09:07:57;;;;;;;;;7.00;7.00;;;;;13.37;73.37;-19568.41;5057240;28;45518;-70
2022/11/06 09:10:24;;;;;;;;;4.33;3.00;;;;;13.25;72.92;-19565.19;5059198;28;45581;-70
2022/11/06 09:12:49;;;;;;;;;7.67;6.00;;;;;13.14;73.17;-19562.22;5057868;28;45347;-72
2022/11/06 09:15:14;;;;;;;;;8.00;6.00;;;;;13.27;73.28;-19565.88;5064327;28;45410;-70
2022/11/06 09:17:48;;;;;;;;;7.00;5.67;;;;;13.23;76.75;-19564.66;5040740;28;45377;-70
2022/11/06 09:20:16;;;;;;;;;8.00;5.67;;;;;13.10;79.13;-19561.28;5058846;28;45417;-71
2022/11/06 09:22:42;;;;;;;;;7.33;6.00;;;;;13.03;78.81;-19559.53;5059059;28;45400;-74
2022/11/06 09:25:08;;;;;;;;;6.67;5.67;;;;;12.79;78.81;-19553.09;5040161;28;48036;-75
2022/11/06 09:27:44;;;;;;;;;2.67;2.67;;;;;12.75;79.67;-19552.13;5058739;28;45402;-75
2022/11/06 09:30:12;;;;;;;;;5.00;5.00;;;;;12.84;80.95;-19554.44;5058802;28;45492;-69
2022/11/06 09:32:38;;;;;;;;;7.00;5.00;;;;;12.76;80.39;-19552.41;5058310;28;45463;-69
2022/11/06 09:35:04;;;;;;;;;10.33;8.33;;;;;12.75;80.43;-19552.13;5058188;28;46350;-69
2022/11/06 09:37:29;;;;;;;;;7.67;7.67;;;;;12.72;80.97;-19551.19;5040451;28;45405;-69
2022/11/06 09:39:54;;;;;;;;;8.67;7.00;;;;;12.71;81.24;-19551.06;5058768;28;45576;-70
2022/11/06 09:42:29;;;;;;;;;5.00;5.00;;;;;12.70;81.14;-19550.78;5058863;28;45452;-69
2022/11/06 09:45:16;;;;;;;;;7.00;5.00;;;;;12.62;80.45;-19548.78;5055040;28;45364;-69
2022/11/06 09:47:52;;;;;;;;;16.67;12.00;;;;;12.66;81.50;-19549.72;5039965;28;45451;-69
2022/11/06 09:50:24;;;;;;;;;9.33;7.00;;;;;12.66;82.11;-19549.72;5055456;28;45561;-69
2022/11/06 09:52:56;;;;;;;;;7.00;6.00;;;;;12.40;81.67;-19542.97;5060451;28;45487;-70
2022/11/06 09:55:33;;;;;;;;;4.00;4.00;;;;;12.65;81.53;-19549.59;5048530;28;47319;-70
2022/11/06 09:58:04;;;;;;;;;6.67;6.00;;;;;12.53;81.71;-19546.34;5056329;28;45622;-69
2022/11/06 10:00:30;;;;;;;;;7.00;7.00;;;;;12.62;82.80;-19548.63;5054601;28;45627;-69
2022/11/06 10:03:02;;;;;;;;;8.00;7.00;;;;;12.63;82.30;-19548.91;5057832;28;45547;-68
2022/11/06 10:05:36;;;;;;;;;12.67;11.00;;;;;12.64;82.27;-19549.31;5044466;28;45551;-74
2022/11/06 10:08:34;;;;;;;;;9.67;7.33;;;;;12.62;81.23;-19548.63;5048928;28;45519;-70
2022/11/06 10:11:08;;;;;;;;;7.33;6.00;;;;;12.63;80.95;-19548.91;4975481;28;45541;-72
2022/11/06 10:13:43;;;;;;;;;6.67;6.67;;;;;12.69;81.07;-19550.53;4972328;28;45495;-71
2022/11/06 10:16:37;;;;;;;;;9.00;6.33;;;;;12.68;81.08;-19550.38;4973654;28;45585;-68
2022/11/06 10:19:04;;;;;;;;;13.00;13.00;;;;;12.69;81.03;-19550.53;4974060;28;45463;-71
2022/11/06 10:21:59;;;;;;;;;6.67;6.67;;;;;12.72;82.66;-19551.34;4983067;28;46535;-70
2022/11/06 10:24:38;;;;;;;;;7.00;6.33;;;;;12.61;82.35;-19548.38;4964452;28;45386;-72
2022/11/06 10:27:13;;;;;;;;;8.00;8.00;;;;;12.77;82.60;-19552.69;4975272;28;47097;-71
2022/11/06 10:30:09;;;;;;;;;9.33;8.00;;;;;12.40;81.88;-19542.97;4983626;28;45802;-71
2022/11/06 10:33:02;;;;;;;;;2.33;1.33;;;;;12.83;80.55;-19554.16;4974405;28;45787;-74
2022/11/06 10:35:38;;;;;;;;;10.00;8.67;;;;;12.48;81.04;-19544.88;4975730;28;45408;-71
2022/11/06 10:38:16;;;;;;;;;7.00;5.00;;;;;12.53;81.24;-19546.34;4958702;28;47974;-71
2022/11/06 10:40:47;;;;;;;;;8.67;7.00;;;;;12.76;82.55;-19552.41;4974603;28;45493;-69
2022/11/06 10:43:36;;;;;;;;;5.00;5.00;;;;;12.68;86.10;-19550.38;4975115;28;45534;-69
2022/11/06 10:46:26;;;;;;;;;5.33;5.33;;;;;12.45;85.88;-19544.34;4995262;28;45438;-70
2022/11/06 10:48:57;;;;;;;;;6.00;4.67;;;;;12.61;83.89;-19548.50;5055703;28;45695;-71
2022/11/06 10:51:38;;;;;;;;;9.00;7.33;;;;;12.64;85.02;-19549.31;5053043;28;45382;-73
2022/11/06 10:54:18;;;;;;;;;11.00;11.00;;;;;12.61;88.37;-19548.38;5039328;28;45433;-71
2022/11/06 10:57:05;;;;;;;;;9.33;7.33;;;;;12.57;91.81;-19547.28;5035582;28;45421;-71
2022/11/06 10:59:32;;;;;;;;;7.00;5.67;;;;;12.58;89.75;-19547.69;5056917;28;45547;-71
2022/11/06 11:01:58;;;;;;;;;6.00;6.00;;;;;12.56;88.22;-19547.03;5036381;28;45589;-72
2022/11/06 11:04:29;;;;;;;;;7.00;6.00;;;;;12.54;88.48;-19546.50;5056442;28;45564;-71
2022/11/06 11:06:55;;;;;;;;;5.67;5.67;;;;;12.49;89.14;-19545.13;5052883;28;45690;-71
2022/11/06 11:09:33;;;;;;;;;5.67;5.67;;;;;12.27;92.93;-19539.34;5056253;28;46063;-71
2022/11/06 11:11:59;;;;;;;;;7.00;6.67;;;;;12.19;92.98;-19537.34;5022302;28;45552;-70
2022/11/06 11:14:30;;;;;;;;;8.33;5.00;;;;;12.15;97.57;-19536.25;5056176;28;45507;-71
2022/11/06 11:17:00;;;;;;;;;8.00;7.00;;;;;12.25;100.00;-19539.09;5057848;28;45856;-70
2022/11/06 11:19:41;;;;;;;;;6.00;6.00;;;;;12.19;100.00;-19537.47;5052142;28;45342;-71
2022/11/06 11:22:27;;;;;;;;;8.33;8.33;;;;;12.15;100.00;-19536.38;5035207;28;46132;-71
2022/11/06 11:25:07;;;;;;;;;3.33;3.33;;;;;11.99;100.00;-19532.09;5055489;28;45500;-68
2022/11/06 11:27:43;;;;;;;;;5.00;5.00;;;;;12.04;100.00;-19533.44;5036562;28;45698;-71
2022/11/06 11:30:28;;;;;;;;;6.00;5.00;;;;;11.81;100.00;-19527.50;5054674;28;45771;-71
2022/11/06 11:32:57;;;;;;;;;16.67;13.00;;;;;11.38;100.00;-19516.03;5052762;28;45346;-71
2022/11/06 11:35:28;;;;;;;;;9.33;8.67;;;;;-145.03;100.00;62373.16;5054119;28;45409;-70
2022/11/06 11:38:12;;;;;;;;;10.00;10.00;;;;;-145.03;100.00;62373.16;5055310;28;45547;-70
2022/11/06 11:40:38;;;;;;;;;6.33;6.00;;;;;-145.03;100.00;62373.16;5055299;28;45613;-71
2022/11/06 11:43:26;;;;;;;;;8.00;7.00;;;;;-145.03;100.00;62373.16;5052753;28;45477;-71
2022/11/06 11:46:16;;;;;;;;;10.00;9.00;;;;;-145.03;100.00;62373.16;5049199;28;45512;-70
2022/11/06 11:48:49;;;;;;;;;31.67;28.00;;;;;-145.03;100.00;62373.16;5028295;28;45610;-71
2022/11/06 11:51:39;;;;;;;;;10.33;8.00;;;;;-145.03;100.00;62373.16;5054121;28;45476;-71
2022/11/06 11:54:11;;;;;;;;;10.33;8.33;;;;;-145.03;100.00;62373.16;5052284;28;45536;-71